CMB855 Details

Departure: Guam International Airport (PGUM)
Arrival: Daniel K Inouye International Airport (PHNL) at N/A
Route: DEWSS A450 NATIE A450 BRIUN NONNI BOOKE BOOKE8
Notes: USTRANSCOM CONTRACT FLIGHT | PAYLOAD RESTRICTED | ETOPS


Current Weather Information
PGUM 230654Z 10006KT 10SM CLR 29/24 A2984 RMK AO2 SLP095 T02940244
PHNL 230653Z 05012KT 10SM FEW024 27/20 A3002 RMK AO2 SLP165 T02720200